sensor_id;sensor_type;location;lat;lon;timestamp;pressure;altitude;pressure_sealevel;temperature;humidity
69570;BME280;56781;42.292;23.146;2023-09-19T00:00:49;95922.78;;;12.64;100.00
69570;BME280;56781;42.292;23.146;2023-09-19T00:03:16;95909.78;;;12.80;100.00
69570;BME280;56781;42.292;23.146;2023-09-19T00:05:44;95912.19;;;13.27;100.00
69570;BME280;56781;42.292;23.146;2023-09-19T00:08:12;95914.34;;;13.39;100.00
69570;BME280;56781;42.292;23.146;2023-09-19T00:10:43;95907.03;;;13.30;100.00
69570;BME280;56781;42.292;23.146;2023-09-19T00:13:10;95933.28;;;13.34;100.00
69570;BME280;56781;42.292;23.146;2023-09-19T00:15:44;95919.53;;;13.13;100.00
69570;BME280;56781;42.292;23.146;2023-09-19T00:18:18;95913.31;;;13.03;100.00
69570;BME280;56781;42.292;23.146;2023-09-19T00:20:48;95925.06;;;13.16;100.00
69570;BME280;56781;42.292;23.146;2023-09-19T00:23:16;95907.72;;;13.00;100.00
69570;BME280;56781;42.292;23.146;2023-09-19T00:25:44;95929.09;;;13.05;100.00
69570;BME280;56781;42.292;23.146;2023-09-19T00:28:12;95925.94;;;13.03;100.00
69570;BME280;56781;42.292;23.146;2023-09-19T00:30:42;95919.06;;;12.74;100.00
69570;BME280;56781;42.292;23.146;2023-09-19T00:33:13;95927.13;;;12.74;100.00
69570;BME280;56781;42.292;23.146;2023-09-19T00:35:50;95905.75;;;12.69;100.00
69570;BME280;56781;42.292;23.146;2023-09-19T00:38:19;95913.81;;;12.69;100.00
69570;BME280;56781;42.292;23.146;2023-09-19T00:40:51;95911.63;;;12.71;100.00
69570;BME280;56781;42.292;23.146;2023-09-19T00:43:19;95929.81;;;12.74;100.00
69570;BME280;56781;42.292;23.146;2023-09-19T00:45:52;95911.00;;;12.74;100.00
69570;BME280;56781;42.292;23.146;2023-09-19T00:48:24;95926.84;;;12.98;100.00
69570;BME280;56781;42.292;23.146;2023-09-19T00:50:54;95900.03;;;12.84;100.00
69570;BME280;56781;42.292;23.146;2023-09-19T00:53:25;95917.63;;;12.91;100.00
69570;BME280;56781;42.292;23.146;2023-09-19T00:55:54;95921.47;;;12.98;100.00
69570;BME280;56781;42.292;23.146;2023-09-19T00:58:23;95911.75;;;12.89;100.00
69570;BME280;56781;42.292;23.146;2023-09-19T01:00:50;95900.38;;;12.92;100.00
69570;BME280;56781;42.292;23.146;2023-09-19T01:03:20;95909.88;;;13.12;100.00
69570;BME280;56781;42.292;23.146;2023-09-19T01:05:48;95916.59;;;13.00;100.00
69570;BME280;56781;42.292;23.146;2023-09-19T01:08:16;95924.56;;;12.92;100.00
69570;BME280;56781;42.292;23.146;2023-09-19T01:10:56;95917.00;;;12.71;100.00
69570;BME280;56781;42.292;23.146;2023-09-19T01:13:36;95929.22;;;12.77;100.00
69570;BME280;56781;42.292;23.146;2023-09-19T01:16:11;95931.50;;;12.84;100.00
69570;BME280;56781;42.292;23.146;2023-09-19T01:18:51;95920.53;;;12.80;100.00
69570;BME280;56781;42.292;23.146;2023-09-19T01:21:26;95914.50;;;12.75;100.00
69570;BME280;56781;42.292;23.146;2023-09-19T01:24:34;95912.47;;;12.58;100.00
69570;BME280;56781;42.292;23.146;2023-09-19T01:29:48;95928.22;;;12.23;100.00
69570;BME280;56781;42.292;23.146;2023-09-19T01:32:18;95926.66;;;11.94;100.00
69570;BME280;56781;42.292;23.146;2023-09-19T01:34:51;95932.97;;;11.85;100.00
69570;BME280;56781;42.292;23.146;2023-09-19T01:37:20;95922.53;;;11.83;100.00
69570;BME280;56781;42.292;23.146;2023-09-19T01:39:59;95902.78;;;11.79;100.00
69570;BME280;56781;42.292;23.146;2023-09-19T01:42:40;95903.66;;;11.74;100.00
69570;BME280;56781;42.292;23.146;2023-09-19T01:45:13;95900.97;;;11.61;100.00
69570;BME280;56781;42.292;23.146;2023-09-19T01:47:50;95909.81;;;11.61;100.00
69570;BME280;56781;42.292;23.146;2023-09-19T01:50:34;95905.34;;;11.43;100.00
69570;BME280;56781;42.292;23.146;2023-09-19T01:53:15;95908.50;;;11.59;100.00
69570;BME280;56781;42.292;23.146;2023-09-19T01:55:48;95882.09;;;11.38;100.00
69570;BME280;56781;42.292;23.146;2023-09-19T01:58:21;95887.47;;;11.66;100.00
69570;BME280;56781;42.292;23.146;2023-09-19T02:00:49;95893.44;;;11.76;100.00
69570;BME280;56781;42.292;23.146;2023-09-19T02:03:21;95890.19;;;11.93;100.00
69570;BME280;56781;42.292;23.146;2023-09-19T02:05:53;95906.09;;;12.04;100.00
69570;BME280;56781;42.292;23.146;2023-09-19T02:08:22;95906.88;;;11.90;100.00
69570;BME280;56781;42.292;23.146;2023-09-19T02:10:53;95906.16;;;11.85;100.00
69570;BME280;56781;42.292;23.146;2023-09-19T02:13:21;95898.19;;;11.80;100.00
69570;BME280;56781;42.292;23.146;2023-09-19T02:15:49;95922.44;;;11.74;100.00
69570;BME280;56781;42.292;23.146;2023-09-19T02:18:16;95919.84;;;11.83;100.00
69570;BME280;56781;42.292;23.146;2023-09-19T02:20:44;95908.34;;;11.83;100.00
69570;BME280;56781;42.292;23.146;2023-09-19T02:23:13;95894.03;;;11.60;100.00
69570;BME280;56781;42.292;23.146;2023-09-19T02:25:42;95902.34;;;11.58;100.00
69570;BME280;56781;42.292;23.146;2023-09-19T02:28:10;95904.56;;;11.70;100.00
69570;BME280;56781;42.292;23.146;2023-09-19T02:30:38;95912.91;;;11.68;100.00
69570;BME280;56781;42.292;23.146;2023-09-19T02:33:05;95889.19;;;11.29;100.00
69570;BME280;56781;42.292;23.146;2023-09-19T02:35:33;95885.03;;;11.23;100.00
69570;BME280;56781;42.292;23.146;2023-09-19T02:38:03;95903.94;;;11.13;100.00
69570;BME280;56781;42.292;23.146;2023-09-19T02:40:33;95914.94;;;10.97;100.00
69570;BME280;56781;42.292;23.146;2023-09-19T02:43:03;95895.34;;;10.83;100.00
69570;BME280;56781;42.292;23.146;2023-09-19T02:45:31;95881.72;;;10.79;100.00
69570;BME280;56781;42.292;23.146;2023-09-19T02:47:59;95882.75;;;10.83;100.00
69570;BME280;56781;42.292;23.146;2023-09-19T02:50:26;95881.00;;;10.74;100.00
69570;BME280;56781;42.292;23.146;2023-09-19T02:52:53;95883.97;;;10.91;100.00
69570;BME280;56781;42.292;23.146;2023-09-19T02:55:21;95891.53;;;11.03;100.00
69570;BME280;56781;42.292;23.146;2023-09-19T02:57:50;95865.25;;;11.05;100.00
69570;BME280;56781;42.292;23.146;2023-09-19T03:00:18;95868.56;;;11.16;100.00
69570;BME280;56781;42.292;23.146;2023-09-19T03:02:53;95887.63;;;11.28;100.00
69570;BME280;56781;42.292;23.146;2023-09-19T03:05:22;95869.13;;;11.13;100.00
69570;BME280;56781;42.292;23.146;2023-09-19T03:07:50;95864.94;;;11.06;100.00
69570;BME280;56781;42.292;23.146;2023-09-19T03:10:18;95859.78;;;11.10;100.00
69570;BME280;56781;42.292;23.146;2023-09-19T03:12:49;95866.53;;;11.07;100.00
69570;BME280;56781;42.292;23.146;2023-09-19T03:15:16;95854.53;;;11.05;100.00
69570;BME280;56781;42.292;23.146;2023-09-19T03:17:46;95854.97;;;10.93;100.00
69570;BME280;56781;42.292;23.146;2023-09-19T03:20:19;95860.00;;;10.81;100.00
69570;BME280;56781;42.292;23.146;2023-09-19T03:22:48;95871.84;;;10.94;100.00
69570;BME280;56781;42.292;23.146;2023-09-19T03:25:15;95868.44;;;10.88;100.00
69570;BME280;56781;42.292;23.146;2023-09-19T03:27:44;95850.28;;;10.52;100.00
69570;BME280;56781;42.292;23.146;2023-09-19T03:30:12;95856.94;;;10.36;100.00
69570;BME280;56781;42.292;23.146;2023-09-19T03:32:47;95866.69;;;10.27;100.00
69570;BME280;56781;42.292;23.146;2023-09-19T03:35:18;95860.63;;;10.40;100.00
69570;BME280;56781;42.292;23.146;2023-09-19T03:37:45;95862.00;;;10.56;100.00
69570;BME280;56781;42.292;23.146;2023-09-19T03:40:12;95859.25;;;10.61;100.00
69570;BME280;56781;42.292;23.146;2023-09-19T03:42:40;95852.09;;;10.38;100.00
69570;BME280;56781;42.292;23.146;2023-09-19T03:45:09;95856.16;;;10.35;100.00
69570;BME280;56781;42.292;23.146;2023-09-19T03:47:40;95885.00;;;10.57;100.00
69570;BME280;56781;42.292;23.146;2023-09-19T03:50:08;95878.00;;;10.61;100.00
69570;BME280;56781;42.292;23.146;2023-09-19T03:52:38;95891.25;;;10.85;100.00
69570;BME280;56781;42.292;23.146;2023-09-19T03:55:05;95889.88;;;10.88;100.00
69570;BME280;56781;42.292;23.146;2023-09-19T03:57:32;95888.72;;;10.94;100.00
69570;BME280;56781;42.292;23.146;2023-09-19T04:00:03;95896.97;;;10.98;100.00
69570;BME280;56781;42.292;23.146;2023-09-19T04:02:39;95874.63;;;10.89;100.00
69570;BME280;56781;42.292;23.146;2023-09-19T04:05:07;95905.78;;;10.98;100.00
69570;BME280;56781;42.292;23.146;2023-09-19T04:07:34;95908.06;;;10.91;100.00
69570;BME280;56781;42.292;23.146;2023-09-19T04:10:02;95884.28;;;10.71;100.00
69570;BME280;56781;42.292;23.146;2023-09-19T04:12:30;95885.19;;;10.61;100.00
69570;BME280;56781;42.292;23.146;2023-09-19T04:14:57;95900.47;;;10.79;100.00
69570;BME280;56781;42.292;23.146;2023-09-19T04:17:24;95890.25;;;10.81;100.00
69570;BME280;56781;42.292;23.146;2023-09-19T04:19:52;95918.22;;;10.75;100.00
69570;BME280;56781;42.292;23.146;2023-09-19T04:22:20;95912.94;;;10.70;100.00
69570;BME280;56781;42.292;23.146;2023-09-19T04:24:47;95931.44;;;10.67;100.00
69570;BME280;56781;42.292;23.146;2023-09-19T04:27:15;95905.84;;;10.60;100.00
69570;BME280;56781;42.292;23.146;2023-09-19T04:29:42;95904.81;;;10.75;100.00
69570;BME280;56781;42.292;23.146;2023-09-19T04:32:09;95901.63;;;10.92;100.00
69570;BME280;56781;42.292;23.146;2023-09-19T04:34:36;95918.56;;;11.20;100.00
69570;BME280;56781;42.292;23.146;2023-09-19T04:37:05;95919.41;;;11.35;100.00
69570;BME280;56781;42.292;23.146;2023-09-19T04:39:32;95918.50;;;11.39;100.00
69570;BME280;56781;42.292;23.146;2023-09-19T04:42:00;95919.31;;;11.40;100.00
69570;BME280;56781;42.292;23.146;2023-09-19T04:44:28;95904.03;;;11.40;100.00
69570;BME280;56781;42.292;23.146;2023-09-19T04:46:55;95910.63;;;11.29;100.00
69570;BME280;56781;42.292;23.146;2023-09-19T04:49:22;95913.13;;;11.25;100.00
69570;BME280;56781;42.292;23.146;2023-09-19T04:51:50;95895.38;;;11.29;100.00
69570;BME280;56781;42.292;23.146;2023-09-19T04:54:17;95881.13;;;11.15;100.00
69570;BME280;56781;42.292;23.146;2023-09-19T04:56:45;95901.19;;;10.85;100.00
69570;BME280;56781;42.292;23.146;2023-09-19T04:59:12;95914.34;;;11.00;100.00
69570;BME280;56781;42.292;23.146;2023-09-19T05:01:39;95884.38;;;10.98;100.00
69570;BME280;56781;42.292;23.146;2023-09-19T05:04:06;95898.13;;;11.24;100.00
69570;BME280;56781;42.292;23.146;2023-09-19T05:06:34;95894.88;;;11.41;100.00
69570;BME280;56781;42.292;23.146;2023-09-19T05:09:02;95913.78;;;11.77;100.00
69570;BME280;56781;42.292;23.146;2023-09-19T05:11:32;95892.47;;;11.86;100.00
69570;BME280;56781;42.292;23.146;2023-09-19T05:14:00;95912.13;;;12.23;100.00
69570;BME280;56781;42.292;23.146;2023-09-19T05:31:37;95902.13;;;14.04;100.00
69570;BME280;56781;42.292;23.146;2023-09-19T05:34:08;95878.09;;;13.67;100.00
69570;BME280;56781;42.292;23.146;2023-09-19T05:36:36;95881.75;;;13.71;100.00
69570;BME280;56781;42.292;23.146;2023-09-19T05:39:03;95900.75;;;14.24;100.00
69570;BME280;56781;42.292;23.146;2023-09-19T05:41:31;95885.22;;;14.21;100.00
69570;BME280;56781;42.292;23.146;2023-09-19T05:43:58;95869.56;;;14.23;100.00
69570;BME280;56781;42.292;23.146;2023-09-19T05:46:29;95882.88;;;14.45;100.00
69570;BME280;56781;42.292;23.146;2023-09-19T05:48:57;95872.94;;;14.54;100.00
69570;BME280;56781;42.292;23.146;2023-09-19T05:51:24;95863.25;;;14.71;100.00
69570;BME280;56781;42.292;23.146;2023-09-19T05:53:54;95846.28;;;14.44;100.00
69570;BME280;56781;42.292;23.146;2023-09-19T05:56:21;95875.97;;;14.53;100.00
69570;BME280;56781;42.292;23.146;2023-09-19T05:58:49;95861.19;;;14.68;100.00
69570;BME280;56781;42.292;23.146;2023-09-19T06:01:19;95851.38;;;14.89;100.00
69570;BME280;56781;42.292;23.146;2023-09-19T06:03:46;95867.81;;;15.31;100.00
69570;BME280;56781;42.292;23.146;2023-09-19T06:06:14;95870.94;;;15.33;100.00
69570;BME280;56781;42.292;23.146;2023-09-19T06:08:41;95866.97;;;15.30;100.00
69570;BME280;56781;42.292;23.146;2023-09-19T06:11:11;95866.81;;;15.36;100.00
69570;BME280;56781;42.292;23.146;2023-09-19T06:13:38;95857.59;;;15.45;100.00
69570;BME280;56781;42.292;23.146;2023-09-19T06:16:06;95848.22;;;15.51;100.00
69570;BME280;56781;42.292;23.146;2023-09-19T06:18:33;95856.56;;;15.67;100.00
69570;BME280;56781;42.292;23.146;2023-09-19T06:21:01;95856.88;;;15.66;100.00
69570;BME280;56781;42.292;23.146;2023-09-19T06:23:32;95856.88;;;15.75;100.00
69570;BME280;56781;42.292;23.146;2023-09-19T06:25:59;95865.31;;;16.03;100.00
69570;BME280;56781;42.292;23.146;2023-09-19T06:28:26;95865.03;;;16.25;100.00
69570;BME280;56781;42.292;23.146;2023-09-19T06:30:55;95878.66;;;16.58;100.00
69570;BME280;56781;42.292;23.146;2023-09-19T06:33:22;95869.88;;;16.82;100.00
69570;BME280;56781;42.292;23.146;2023-09-19T06:35:49;95876.50;;;16.94;100.00
69570;BME280;56781;42.292;23.146;2023-09-19T06:38:19;95845.66;;;16.65;100.00
69570;BME280;56781;42.292;23.146;2023-09-19T06:40:46;95877.41;;;16.98;100.00
69570;BME280;56781;42.292;23.146;2023-09-19T06:43:14;95861.66;;;17.12;100.00
69570;BME280;56781;42.292;23.146;2023-09-19T06:45:41;95849.59;;;17.10;100.00
69570;BME280;56781;42.292;23.146;2023-09-19T06:48:09;95876.41;;;17.36;100.00
69570;BME280;56781;42.292;23.146;2023-09-19T06:50:37;95875.56;;;17.56;100.00
69570;BME280;56781;42.292;23.146;2023-09-19T06:53:06;95848.25;;;17.73;100.00
69570;BME280;56781;42.292;23.146;2023-09-19T06:55:33;95876.19;;;17.86;100.00
69570;BME280;56781;42.292;23.146;2023-09-19T06:58:01;95850.00;;;17.90;99.26
69570;BME280;56781;42.292;23.146;2023-09-19T07:00:28;95874.03;;;18.04;100.00
69570;BME280;56781;42.292;23.146;2023-09-19T07:03:02;95858.56;;;17.80;100.00
69570;BME280;56781;42.292;23.146;2023-09-19T07:05:31;95864.06;;;17.71;100.00
69570;BME280;56781;42.292;23.146;2023-09-19T07:07:59;95867.94;;;17.83;100.00
69570;BME280;56781;42.292;23.146;2023-09-19T07:10:28;95855.47;;;17.69;100.00
69570;BME280;56781;42.292;23.146;2023-09-19T07:13:03;95880.34;;;17.96;100.00
69570;BME280;56781;42.292;23.146;2023-09-19T07:15:33;95877.44;;;17.89;100.00
69570;BME280;56781;42.292;23.146;2023-09-19T07:18:06;95880.00;;;18.47;100.00
69570;BME280;56781;42.292;23.146;2023-09-19T07:20:33;95892.06;;;18.37;100.00
69570;BME280;56781;42.292;23.146;2023-09-19T07:23:01;95879.94;;;18.59;98.89
69570;BME280;56781;42.292;23.146;2023-09-19T07:25:28;95887.09;;;18.76;97.74
69570;BME280;56781;42.292;23.146;2023-09-19T07:27:57;95879.16;;;18.58;97.74
69570;BME280;56781;42.292;23.146;2023-09-19T07:30:27;95898.06;;;18.55;98.78
69570;BME280;56781;42.292;23.146;2023-09-19T07:32:55;95877.91;;;18.80;95.58
69570;BME280;56781;42.292;23.146;2023-09-19T07:35:22;95887.03;;;18.88;96.65
69570;BME280;56781;42.292;23.146;2023-09-19T07:37:49;95867.31;;;19.03;94.08
69570;BME280;56781;42.292;23.146;2023-09-19T07:40:19;95850.03;;;18.96;94.19
69570;BME280;56781;42.292;23.146;2023-09-19T07:42:48;95862.59;;;19.00;94.89
69570;BME280;56781;42.292;23.146;2023-09-19T07:45:15;95875.84;;;19.18;94.75
69570;BME280;56781;42.292;23.146;2023-09-19T07:47:47;95878.31;;;19.23;95.07
69570;BME280;56781;42.292;23.146;2023-09-19T07:50:15;95866.75;;;19.26;94.87
69570;BME280;56781;42.292;23.146;2023-09-19T07:52:43;95844.88;;;19.51;93.66
69570;BME280;56781;42.292;23.146;2023-09-19T07:55:11;95869.78;;;19.53;92.90
69570;BME280;56781;42.292;23.146;2023-09-19T07:57:43;95851.38;;;19.30;92.51
69570;BME280;56781;42.292;23.146;2023-09-19T08:00:10;95867.19;;;19.72;91.38
69570;BME280;56781;42.292;23.146;2023-09-19T08:02:39;95864.28;;;19.81;89.49
69570;BME280;56781;42.292;23.146;2023-09-19T08:05:08;95872.56;;;19.84;90.84
69570;BME280;56781;42.292;23.146;2023-09-19T08:07:41;95874.13;;;19.69;92.29
69570;BME280;56781;42.292;23.146;2023-09-19T08:10:09;95861.75;;;19.72;91.22
69570;BME280;56781;42.292;23.146;2023-09-19T08:12:43;95871.16;;;19.90;90.68
69570;BME280;56781;42.292;23.146;2023-09-19T08:15:18;95859.31;;;19.99;89.71
69570;BME280;56781;42.292;23.146;2023-09-19T08:17:48;95861.22;;;20.14;87.41
69570;BME280;56781;42.292;23.146;2023-09-19T08:20:17;95846.47;;;20.15;87.83
69570;BME280;56781;42.292;23.146;2023-09-19T08:22:50;95872.50;;;20.32;87.05
69570;BME280;56781;42.292;23.146;2023-09-19T08:25:19;95853.50;;;20.16;86.31
69570;BME280;56781;42.292;23.146;2023-09-19T08:27:47;95862.41;;;20.32;85.65
69570;BME280;56781;42.292;23.146;2023-09-19T08:30:16;95860.06;;;20.66;83.61
69570;BME280;56781;42.292;23.146;2023-09-19T08:32:45;95848.84;;;20.52;82.27
69570;BME280;56781;42.292;23.146;2023-09-19T08:35:13;95844.59;;;20.70;83.12
69570;BME280;56781;42.292;23.146;2023-09-19T08:37:42;95846.75;;;20.80;84.38
69570;BME280;56781;42.292;23.146;2023-09-19T08:40:09;95844.13;;;20.49;83.63
69570;BME280;56781;42.292;23.146;2023-09-19T08:42:56;95843.31;;;20.84;86.05
69570;BME280;56781;42.292;23.146;2023-09-19T08:45:24;95857.38;;;20.86;83.15
69570;BME280;56781;42.292;23.146;2023-09-19T08:48:23;95854.34;;;20.91;85.15
69570;BME280;56781;42.292;23.146;2023-09-19T08:50:56;95869.97;;;20.94;83.77
69570;BME280;56781;42.292;23.146;2023-09-19T08:54:02;95863.66;;;20.90;83.56
69570;BME280;56781;42.292;23.146;2023-09-19T08:56:32;95833.53;;;20.98;82.85
69570;BME280;56781;42.292;23.146;2023-09-19T08:59:03;95854.06;;;20.96;82.04
69570;BME280;56781;42.292;23.146;2023-09-19T09:01:31;95846.22;;;21.33;83.19
69570;BME280;56781;42.292;23.146;2023-09-19T09:04:01;95832.97;;;21.32;82.54
69570;BME280;56781;42.292;23.146;2023-09-19T09:06:29;95822.06;;;21.51;81.35
69570;BME280;56781;42.292;23.146;2023-09-19T09:08:57;95810.19;;;21.40;82.70
69570;BME280;56781;42.292;23.146;2023-09-19T09:11:24;95820.34;;;21.43;81.49
69570;BME280;56781;42.292;23.146;2023-09-19T09:13:55;95808.97;;;21.60;82.80
69570;BME280;56781;42.292;23.146;2023-09-19T09:16:22;95805.44;;;21.83;83.20
69570;BME280;56781;42.292;23.146;2023-09-19T09:18:53;95801.69;;;21.91;79.40
69570;BME280;56781;42.292;23.146;2023-09-19T09:21:22;95792.22;;;21.85;78.82
69570;BME280;56781;42.292;23.146;2023-09-19T09:23:51;95792.34;;;21.92;79.65
69570;BME280;56781;42.292;23.146;2023-09-19T09:29:06;95795.91;;;21.69;77.23
69570;BME280;56781;42.292;23.146;2023-09-19T09:31:33;95781.44;;;21.92;78.99
69570;BME280;56781;42.292;23.146;2023-09-19T09:34:01;95794.47;;;22.29;78.32
69570;BME280;56781;42.292;23.146;2023-09-19T09:36:39;95779.34;;;22.35;77.56
69570;BME280;56781;42.292;23.146;2023-09-19T09:39:08;95776.47;;;22.24;75.30
69570;BME280;56781;42.292;23.146;2023-09-19T09:41:46;95779.84;;;22.44;75.53
69570;BME280;56781;42.292;23.146;2023-09-19T09:44:17;95772.09;;;22.46;74.22
69570;BME280;56781;42.292;23.146;2023-09-19T09:46:46;95769.44;;;22.84;76.57
69570;BME280;56781;42.292;23.146;2023-09-19T09:49:24;95770.19;;;22.81;74.83
69570;BME280;56781;42.292;23.146;2023-09-19T09:52:04;95775.00;;;22.94;73.91
69570;BME280;56781;42.292;23.146;2023-09-19T09:55:01;95771.31;;;22.46;75.27
69570;BME280;56781;42.292;23.146;2023-09-19T09:57:33;95768.09;;;22.37;75.53
69570;BME280;56781;42.292;23.146;2023-09-19T10:00:01;95743.31;;;22.52;73.86
69570;BME280;56781;42.292;23.146;2023-09-19T10:02:47;95764.91;;;22.65;71.70
69570;BME280;56781;42.292;23.146;2023-09-19T10:05:16;95761.88;;;22.70;75.39
69570;BME280;56781;42.292;23.146;2023-09-19T10:07:50;95755.22;;;22.71;72.67
69570;BME280;56781;42.292;23.146;2023-09-19T10:10:33;95753.47;;;22.86;74.37
69570;BME280;56781;42.292;23.146;2023-09-19T10:13:07;95756.47;;;23.11;76.34
69570;BME280;56781;42.292;23.146;2023-09-19T10:15:39;95726.81;;;23.09;73.60
69570;BME280;56781;42.292;23.146;2023-09-19T10:18:14;95723.59;;;23.44;73.63
69570;BME280;56781;42.292;23.146;2023-09-19T10:20:45;95751.75;;;22.74;75.10
69570;BME280;56781;42.292;23.146;2023-09-19T10:23:13;95735.38;;;23.08;76.43
69570;BME280;56781;42.292;23.146;2023-09-19T10:25:49;95718.59;;;23.06;74.01
69570;BME280;56781;42.292;23.146;2023-09-19T10:28:17;95712.69;;;23.00;74.57
69570;BME280;56781;42.292;23.146;2023-09-19T10:30:51;95717.59;;;23.25;75.78
69570;BME280;56781;42.292;23.146;2023-09-19T10:33:24;95709.91;;;23.37;77.43
69570;BME280;56781;42.292;23.146;2023-09-19T10:35:58;95717.91;;;23.16;73.77
69570;BME280;56781;42.292;23.146;2023-09-19T10:38:27;95721.63;;;23.41;75.07
69570;BME280;56781;42.292;23.146;2023-09-19T10:41:03;95710.13;;;23.70;75.07
69570;BME280;56781;42.292;23.146;2023-09-19T10:43:32;95704.22;;;24.23;71.94
69570;BME280;56781;42.292;23.146;2023-09-19T10:46:06;95706.16;;;24.22;71.96
69570;BME280;56781;42.292;23.146;2023-09-19T10:48:34;95688.03;;;23.96;69.19
69570;BME280;56781;42.292;23.146;2023-09-19T10:51:11;95694.94;;;23.72;73.26
69570;BME280;56781;42.292;23.146;2023-09-19T10:53:59;95673.94;;;23.83;75.94
69570;BME280;56781;42.292;23.146;2023-09-19T10:56:35;95696.34;;;24.14;71.02
69570;BME280;56781;42.292;23.146;2023-09-19T10:59:12;95680.00;;;24.28;70.10
69570;BME280;56781;42.292;23.146;2023-09-19T11:01:53;95675.34;;;24.36;68.39
69570;BME280;56781;42.292;23.146;2023-09-19T11:09:46;95680.44;;;23.68;70.46
69570;BME280;56781;42.292;23.146;2023-09-19T11:14:53;95670.31;;;23.72;71.51
69570;BME280;56781;42.292;23.146;2023-09-19T11:23:16;95661.50;;;23.97;71.05
69570;BME280;56781;42.292;23.146;2023-09-19T11:25:44;95653.38;;;24.18;72.56
69570;BME280;56781;42.292;23.146;2023-09-19T11:30:52;95655.41;;;24.43;71.12
69570;BME280;56781;42.292;23.146;2023-09-19T11:33:31;95643.34;;;24.47;66.98
69570;BME280;56781;42.292;23.146;2023-09-19T11:36:08;95643.34;;;24.44;65.66
69570;BME280;56781;42.292;23.146;2023-09-19T11:46:54;95612.13;;;24.73;67.63
69570;BME280;56781;42.292;23.146;2023-09-19T11:49:27;95615.25;;;24.97;64.24
69570;BME280;56781;42.292;23.146;2023-09-19T11:52:00;95605.09;;;24.80;68.03
69570;BME280;56781;42.292;23.146;2023-09-19T11:54:40;95608.22;;;24.67;69.38
69570;BME280;56781;42.292;23.146;2023-09-19T11:57:09;95593.34;;;24.65;71.06
69570;BME280;56781;42.292;23.146;2023-09-19T11:59:39;95580.03;;;24.49;66.68
69570;BME280;56781;42.292;23.146;2023-09-19T12:02:07;95590.59;;;24.54;68.58
69570;BME280;56781;42.292;23.146;2023-09-19T12:04:40;95591.78;;;24.74;69.01
69570;BME280;56781;42.292;23.146;2023-09-19T12:07:11;95597.25;;;24.82;63.92
69570;BME280;56781;42.292;23.146;2023-09-19T12:09:47;95588.25;;;24.77;68.36
69570;BME280;56781;42.292;23.146;2023-09-19T12:12:27;95583.94;;;24.59;68.50
69570;BME280;56781;42.292;23.146;2023-09-19T12:14:55;95578.84;;;24.50;65.00
69570;BME280;56781;42.292;23.146;2023-09-19T12:17:39;95592.53;;;24.53;66.95
69570;BME280;56781;42.292;23.146;2023-09-19T12:20:09;95572.97;;;24.48;72.53
69570;BME280;56781;42.292;23.146;2023-09-19T12:22:45;95594.13;;;24.72;69.72
69570;BME280;56781;42.292;23.146;2023-09-19T12:25:13;95571.34;;;24.36;69.13
69570;BME280;56781;42.292;23.146;2023-09-19T12:27:47;95578.00;;;24.39;66.25
69570;BME280;56781;42.292;23.146;2023-09-19T12:30:16;95568.28;;;24.45;69.09
69570;BME280;56781;42.292;23.146;2023-09-19T12:32:54;95574.56;;;24.77;62.67
69570;BME280;56781;42.292;23.146;2023-09-19T12:35:31;95571.03;;;24.52;65.82
69570;BME280;56781;42.292;23.146;2023-09-19T12:38:03;95567.13;;;24.60;64.99
69570;BME280;56781;42.292;23.146;2023-09-19T12:40:31;95573.41;;;24.93;68.75
69570;BME280;56781;42.292;23.146;2023-09-19T12:43:01;95572.22;;;25.26;65.87
69570;BME280;56781;42.292;23.146;2023-09-19T12:45:32;95560.88;;;25.28;64.03
69570;BME280;56781;42.292;23.146;2023-09-19T12:48:24;95560.47;;;25.18;63.81
69570;BME280;56781;42.292;23.146;2023-09-19T12:53:40;95555.38;;;25.13;66.42
69570;BME280;56781;42.292;23.146;2023-09-19T12:56:12;95539.34;;;25.12;65.10
69570;BME280;56781;42.292;23.146;2023-09-19T12:58:57;95533.50;;;25.17;67.78
69570;BME280;56781;42.292;23.146;2023-09-19T13:01:30;95534.25;;;25.28;63.64
69570;BME280;56781;42.292;23.146;2023-09-19T13:04:19;95550.31;;;25.19;62.96
69570;BME280;56781;42.292;23.146;2023-09-19T13:06:51;95538.56;;;25.33;65.96
69570;BME280;56781;42.292;23.146;2023-09-19T13:09:23;95530.34;;;25.08;63.66
69570;BME280;56781;42.292;23.146;2023-09-19T13:12:02;95545.59;;;25.27;67.33
69570;BME280;56781;42.292;23.146;2023-09-19T13:14:31;95537.78;;;25.25;63.79
69570;BME280;56781;42.292;23.146;2023-09-19T13:19:48;95513.50;;;25.09;61.40
69570;BME280;56781;42.292;23.146;2023-09-19T13:22:45;95522.84;;;25.44;65.61
69570;BME280;56781;42.292;23.146;2023-09-19T13:25:18;95510.41;;;25.22;63.20
69570;BME280;56781;42.292;23.146;2023-09-19T13:27:56;95515.44;;;25.34;68.86
69570;BME280;56781;42.292;23.146;2023-09-19T13:30:26;95504.91;;;25.25;64.93
69570;BME280;56781;42.292;23.146;2023-09-19T13:33:06;95515.84;;;25.36;64.96
69570;BME280;56781;42.292;23.146;2023-09-19T13:35:34;95518.97;;;25.38;65.09
69570;BME280;56781;42.292;23.146;2023-09-19T13:38:02;95512.66;;;25.45;59.71
69570;BME280;56781;42.292;23.146;2023-09-19T13:40:29;95492.66;;;25.51;61.77
69570;BME280;56781;42.292;23.146;2023-09-19T13:42:57;95507.94;;;25.52;65.08
69570;BME280;56781;42.292;23.146;2023-09-19T13:45:24;95511.50;;;25.42;63.65
69570;BME280;56781;42.292;23.146;2023-09-19T13:47:53;95481.34;;;25.49;59.80
69570;BME280;56781;42.292;23.146;2023-09-19T13:50:21;95502.47;;;25.52;59.08
69570;BME280;56781;42.292;23.146;2023-09-19T13:52:51;95493.94;;;25.25;61.12
69570;BME280;56781;42.292;23.146;2023-09-19T13:55:20;95492.31;;;25.35;62.83